Time;durP1;ratioP1;P1;durP2;ratioP2;P2;SDS_P1;SDS_P2;PMS_P1;PMS_P2;Temp;Humidity;BMP_temperature;BMP_pressure;BME280_temperature;BME280_humidity;BME280_pressure;Samples;Min_cycle;Max_cycle;Signal;HPM_P1;HPM_P2
2022/08/13 00:00:41;;;;;;;12.80;9.70;;;;;;;20.76;81.60;99625.08;109278;1274;138852;-69
2022/08/13 00:03:13;;;;;;;10.90;9.00;;;;;;;20.75;81.21;99626.25;109253;1274;22432;-70
2022/08/13 00:06:02;;;;;;;10.50;9.20;;;;;;;20.74;80.67;99622.02;109170;1274;138810;-69
2022/08/13 00:08:29;;;;;;;15.70;9.60;;;;;;;20.74;80.45;99614.88;109224;1274;23108;-69
2022/08/13 00:10:55;;;;;;;10.60;9.50;;;;;;;20.75;80.07;99607.88;109350;1274;22559;-69
2022/08/13 00:13:25;;;;;;;12.20;8.90;;;;;;;20.75;79.79;99599.52;109216;1274;139551;-69
2022/08/13 00:16:10;;;;;;;10.00;8.60;;;;;;;20.77;79.63;99589.77;109362;1274;22884;-69
2022/08/13 00:18:38;;;;;;;10.90;9.00;;;;;;;20.76;79.22;99577.59;109222;1274;138386;-68
2022/08/13 00:21:07;;;;;;;12.30;8.80;;;;;;;20.77;78.91;99574.41;109374;1274;22442;-69
2022/08/13 00:23:37;;;;;;;14.70;8.50;;;;;;;20.77;78.59;99568.98;109430;1274;22677;-68
2022/08/13 00:26:25;;;;;;;8.70;7.70;;;;;;;20.76;78.33;99572.44;109457;1274;23758;-69
2022/08/13 00:29:00;;;;;;;11.50;8.40;;;;;;;20.76;78.04;99575.51;109389;1274;22469;-68
2022/08/13 00:31:27;;;;;;;11.50;7.50;;;;;;;20.76;77.84;99573.05;109233;1274;139789;-68
2022/08/13 00:33:58;;;;;;;11.90;8.10;;;;;;;20.75;77.55;99568.71;109334;1274;22438;-68
2022/08/13 00:36:25;;;;;;;9.00;7.70;;;;;;;20.73;77.39;99556.83;109359;1274;139469;-67
2022/08/13 00:39:07;;;;;;;13.70;8.00;;;;;;;20.72;77.16;99546.59;109311;1274;22545;-65
2022/08/13 00:41:38;;;;;;;12.70;7.90;;;;;;;20.71;76.79;99546.91;109319;1274;22445;-65
2022/08/13 00:44:25;;;;;;;10.10;8.20;;;;;;;20.71;76.52;99545.48;109231;1274;23383;-65
2022/08/13 00:48:41;;;;;;;10.50;7.90;;;;;;;20.70;76.33;99543.61;109405;1274;22438;-66
2022/08/13 00:49:47;;;;;;;9.10;7.10;;;;;;;20.70;76.21;99538.64;109270;1274;140528;-66
2022/08/13 00:52:33;;;;;;;11.00;7.70;;;;;;;20.68;75.96;99542.45;109374;1274;22440;-66
2022/08/13 00:55:07;;;;;;;11.50;7.40;;;;;;;20.68;75.89;99544.63;109132;1274;139850;-65
2022/08/13 00:57:34;;;;;;;10.90;7.40;;;;;;;20.67;75.83;99533.45;109298;1274;22455;-66
2022/08/13 01:00:07;;;;;;;11.40;7.60;;;;;;;20.66;75.69;99522.73;109232;1274;138446;-65
2022/08/13 01:02:50;;;;;;;18.60;8.00;;;;;;;20.66;75.57;99523.19;109305;1274;23334;-66
2022/08/13 01:05:24;;;;;;;9.40;7.30;;;;;;;20.64;75.45;99526.57;108959;1274;22584;-65
2022/08/13 01:07:56;;;;;;;12.40;7.70;;;;;;;20.63;75.59;99524.31;104867;1274;138993;-65
2022/08/13 01:10:24;;;;;;;7.70;6.60;;;;;;;20.60;75.52;99518.84;104987;1274;23180;-65
2022/08/13 01:12:54;;;;;;;11.40;7.30;;;;;;;20.59;75.54;99515.61;104908;1275;139046;-65
2022/08/13 01:15:23;;;;;;;11.10;7.20;;;;;;;20.59;75.59;99518.50;104977;1274;24302;-66
2022/08/13 01:17:57;;;;;;;14.20;7.50;;;;;;;20.57;75.65;99515.90;104751;1274;22716;-69
2022/08/13 01:20:26;;;;;;;8.70;6.80;;;;;;;20.55;75.64;99521.77;104919;1277;24066;-69
2022/08/13 01:23:00;;;;;;;9.80;7.30;;;;;;;20.52;75.66;99522.13;104955;1274;24361;-69
2022/08/13 01:25:27;;;;;;;8.30;7.10;;;;;;;20.50;75.67;99524.63;109336;1274;138668;-65
2022/08/13 01:27:55;;;;;;;11.50;7.60;;;;;;;20.49;75.80;99527.84;109321;1274;22419;-66
2022/08/13 01:30:23;;;;;;;10.40;7.40;;;;;;;20.47;75.84;99526.96;109264;1274;139123;-68
2022/08/13 01:32:50;;;;;;;11.40;7.40;;;;;;;20.46;75.85;99530.80;109326;1274;22497;-67
2022/08/13 01:35:23;;;;;;;11.30;7.30;;;;;;;20.45;75.78;99524.36;108941;1274;22557;-67
2022/08/13 01:37:53;;;;;;;13.00;10.00;;;;;;;20.44;75.84;99517.41;109233;1274;139122;-66
2022/08/13 01:40:30;;;;;;;13.00;8.80;;;;;;;20.42;75.81;99514.15;109456;1274;22585;-66
2022/08/13 01:42:58;;;;;;;12.50;9.30;;;;;;;20.39;75.79;99516.12;109230;1274;139102;-67
2022/08/13 01:45:29;;;;;;;11.40;8.40;;;;;;;20.37;75.75;99519.77;109407;1274;22485;-67
2022/08/13 01:50:47;;;;;;;14.10;7.90;;;;;;;20.36;75.62;99526.77;109322;1274;22497;-67
2022/08/13 01:53:18;;;;;;;9.20;7.20;;;;;;;20.36;75.52;99519.34;109350;1274;22445;-67
2022/08/13 01:55:52;;;;;;;9.90;7.00;;;;;;;20.36;75.51;99512.65;109103;1274;138976;-67
2022/08/13 01:58:39;;;;;;;11.10;6.30;;;;;;;20.35;75.55;99505.56;109413;1274;22448;-68
2022/08/13 02:01:26;;;;;;;;;;;;;;;20.34;75.59;99500.16;109286;1274;139010;-68
2022/08/13 02:04:13;;;;;;;9.20;6.30;;;;;;;20.33;75.53;99498.94;109284;1274;22453;-66
2022/08/13 02:06:48;;;;;;;29.60;6.70;;;;;;;20.32;75.48;99501.90;109301;1274;138339;-67
2022/08/13 02:09:19;;;;;;;14.00;7.20;;;;;;;20.32;75.49;99501.54;109357;1274;22899;-66
2022/08/13 02:12:06;;;;;;;10.40;6.80;;;;;;;20.30;75.61;99504.40;109224;1274;138403;-66
2022/08/13 02:14:33;;;;;;;11.60;7.20;;;;;;;20.29;75.71;99502.92;109393;1274;22478;-66
2022/08/13 02:17:03;;;;;;;10.30;6.10;;;;;;;20.28;75.79;99505.30;109296;1275;22465;-66
2022/08/13 02:19:34;;;;;;;7.70;6.20;;;;;;;20.25;75.92;99508.35;109129;1274;139347;-67
2022/08/13 02:22:01;;;;;;;17.90;7.10;;;;;;;20.24;76.04;99507.73;108323;1274;1373497;-67
2022/08/13 02:25:37;;;;;;;10.30;7.00;;;;;;;20.25;76.05;99502.88;101625;1310;545322;-68
2022/08/13 02:28:05;;;;;;;9.80;6.80;;;;;;;20.23;75.96;99503.61;103857;1290;24329;-68
2022/08/13 02:30:52;;;;;;;11.20;6.40;;;;;;;20.23;75.78;99496.20;103723;1291;137483;-67
2022/08/13 02:33:20;;;;;;;9.40;7.50;;;;;;;20.21;75.73;99494.63;107975;1289;23182;-67
2022/08/13 02:35:51;;;;;;;9.50;6.80;;;;;;;20.20;75.72;99490.54;108007;1289;22407;-68
2022/08/13 02:38:17;;;;;;;9.40;6.60;;;;;;;20.19;75.76;99487.33;107094;1287;1194860;-67
2022/08/13 02:43:46;;;;;;;11.10;7.00;;;;;;;20.17;76.19;99478.70;108174;1286;138102;-65
2022/08/13 02:46:25;;;;;;;12.20;7.10;;;;;;;20.15;76.30;99466.90;109052;1279;22532;-68
2022/08/13 02:48:58;;;;;;;9.80;7.00;;;;;;;20.12;76.42;99464.65;108813;1280;137953;-67
2022/08/13 02:51:26;;;;;;;10.40;7.20;;;;;;;20.09;76.54;99463.73;109056;1279;22409;-67
2022/08/13 02:54:20;;;;;;;10.30;7.30;;;;;;;20.08;76.33;99466.25;108939;1280;138936;-68
2022/08/13 02:56:47;;;;;;;12.00;6.90;;;;;;;20.07;76.48;99458.31;109036;1280;22525;-68
2022/08/13 02:59:14;;;;;;;9.60;7.20;;;;;;;20.07;76.24;99460.85;108985;1281;22419;-69
2022/08/13 03:02:01;;;;;;;13.20;7.10;;;;;;;20.08;76.21;99451.29;108896;1280;139609;-69
2022/08/13 03:04:32;;;;;;;12.80;7.00;;;;;;;20.08;76.12;99446.56;108969;1280;23118;-69
2022/08/13 03:06:59;;;;;;;10.50;7.10;;;;;;;20.09;76.22;99453.01;108907;1280;138473;-68
2022/08/13 03:09:28;;;;;;;14.50;6.80;;;;;;;20.08;76.19;99447.91;108973;1279;22486;-69
2022/08/13 03:11:57;;;;;;;9.70;6.30;;;;;;;20.07;76.00;99446.64;108952;1280;22416;-69
2022/08/13 03:14:30;;;;;;;12.20;7.30;;;;;;;20.08;76.09;99460.88;108951;1280;22478;-69
2022/08/13 03:16:57;;;;;;;11.10;6.70;;;;;;;20.09;76.02;99460.30;109044;1280;22437;-69
2022/08/13 03:19:25;;;;;;;12.50;7.70;;;;;;;20.10;76.03;99460.40;108830;1280;140106;-68
2022/08/13 03:21:52;;;;;;;12.90;7.20;;;;;;;20.10;75.96;99467.80;109031;1280;22566;-68
2022/08/13 03:24:20;;;;;;;9.30;7.30;;;;;;;20.11;75.91;99466.55;108923;1280;138285;-68
2022/08/13 03:26:58;;;;;;;10.40;7.10;;;;;;;20.12;75.88;99468.02;109137;1278;22583;-68
2022/08/13 03:29:25;;;;;;;10.90;6.40;;;;;;;20.12;75.94;99474.11;108993;1279;22256;-68
2022/08/13 03:32:13;;;;;;;11.10;7.20;;;;;;;20.11;75.89;99473.98;108950;1280;138446;-68
2022/08/13 03:34:41;;;;;;;13.60;7.20;;;;;;;20.10;75.92;99481.08;109081;1279;22491;-67
2022/08/13 03:37:10;;;;;;;9.30;6.50;;;;;;;20.11;75.92;99485.83;108811;1280;138546;-67
2022/08/13 03:39:40;;;;;;;11.60;6.90;;;;;;;20.10;76.00;99484.78;108817;1280;23411;-67
2022/08/13 03:42:09;;;;;;;12.10;6.90;;;;;;;20.10;76.03;99485.14;108838;1280;138516;-67
2022/08/13 03:44:40;;;;;;;8.40;6.70;;;;;;;20.08;76.15;99492.58;108947;1280;23283;-67
2022/08/13 03:47:07;;;;;;;10.90;6.80;;;;;;;20.07;76.27;99492.67;105388;1281;24244;-67
2022/08/13 03:49:53;;;;;;;11.60;6.60;;;;;;;20.06;76.61;99489.69;104285;1280;139661;-67
2022/08/13 03:52:21;;;;;;;15.90;7.20;;;;;;;20.02;76.85;99477.52;104669;1280;24268;-68
2022/08/13 03:55:00;;;;;;;9.90;6.40;;;;;;;19.99;77.09;99478.22;104519;1280;138723;-68
2022/08/13 03:57:27;;;;;;;12.50;7.30;;;;;;;19.95;77.40;99478.20;108968;1280;22421;-68
2022/08/13 03:59:55;;;;;;;13.00;7.30;;;;;;;19.92;77.65;99475.04;108958;1280;22482;-67
2022/08/13 04:02:42;;;;;;;19.20;7.50;;;;;;;19.88;77.74;99488.66;108974;1279;22448;-68
2022/08/13 04:05:17;;;;;;;7.20;6.40;;;;;;;19.86;78.00;99493.08;108934;1280;22461;-68
2022/08/13 04:08:04;;;;;;;13.30;6.60;;;;;;;19.84;78.25;99496.94;108792;1281;138221;-68
2022/08/13 04:10:40;;;;;;;13.20;7.90;;;;;;;19.83;77.95;99499.96;108964;1280;22582;-68
2022/08/13 04:13:19;;;;;;;10.30;7.50;;;;;;;19.85;77.64;99505.96;108854;1280;137912;-67
2022/08/13 04:16:12;;;;;;;10.20;7.40;;;;;;;19.87;77.69;99502.13;107303;1279;23178;-68
2022/08/13 04:18:41;;;;;;;22.40;8.00;;;;;;;19.89;77.75;99512.19;108827;1280;138209;-68
2022/08/13 04:21:10;;;;;;;13.10;7.30;;;;;;;19.90;77.77;99518.73;108948;1280;22479;-68
2022/08/13 04:23:44;;;;;;;12.70;7.80;;;;;;;19.91;77.91;99517.98;108893;1280;22484;-67
2022/08/13 04:26:16;;;;;;;12.80;8.40;;;;;;;19.92;78.03;99520.67;108818;1280;138527;-68
2022/08/13 04:28:57;;;;;;;14.40;8.50;;;;;;;19.92;78.30;99523.92;108904;1280;22551;-68
2022/08/13 04:31:24;;;;;;;15.40;7.60;;;;;;;19.90;78.52;99522.45;108913;1279;137900;-68
2022/08/13 04:34:11;;;;;;;12.20;7.30;;;;;;;19.90;78.56;99523.52;108995;1280;22486;-68
2022/08/13 04:36:57;;;;;;;13.00;8.00;;;;;;;19.87;78.80;99527.12;108854;1280;138820;-67
2022/08/13 04:39:26;;;;;;;15.90;8.20;;;;;;;19.83;79.07;99525.56;108931;1280;22471;-68
2022/08/13 04:42:13;;;;;;;13.50;8.20;;;;;;;19.78;79.39;99524.98;108892;1279;139326;-68
2022/08/13 04:44:58;;;;;;;14.00;7.80;;;;;;;19.72;80.06;99531.29;108945;1280;23275;-68
2022/08/13 04:47:29;;;;;;;10.60;7.50;;;;;;;19.66;80.97;99520.58;108992;1279;23328;-67
2022/08/13 04:49:56;;;;;;;16.20;9.10;;;;;;;19.55;81.79;99522.92;108822;1278;139433;-68
2022/08/13 04:52:24;;;;;;;16.40;8.40;;;;;;;19.40;82.94;99510.23;108923;1280;22453;-68
2022/08/13 04:54:56;;;;;;;14.40;8.70;;;;;;;19.24;83.89;99496.61;108837;1279;138109;-69
2022/08/13 04:57:23;;;;;;;18.20;9.50;;;;;;;19.09;84.70;99498.66;108952;1280;22421;-69
2022/08/13 05:00:10;;;;;;;15.90;8.90;;;;;;;18.96;85.51;99507.21;108897;1279;138776;-69
2022/08/13 05:02:40;;;;;;;17.60;8.30;;;;;;;18.86;86.32;99506.63;108983;1280;22445;-69
2022/08/13 05:05:13;;;;;;;17.00;8.00;;;;;;;18.78;87.06;99510.30;108996;1280;23137;-69
2022/08/13 05:07:49;;;;;;;13.60;8.60;;;;;;;18.71;87.75;99502.02;108827;1280;138238;-69
2022/08/13 05:10:21;;;;;;;14.70;8.50;;;;;;;18.66;88.32;99498.38;108931;1280;22263;-69
2022/08/13 05:12:58;;;;;;;15.10;9.10;;;;;;;18.64;88.83;99490.52;108859;1280;140264;-69
2022/08/13 05:15:29;;;;;;;13.20;8.60;;;;;;;18.62;89.25;99500.34;108902;1278;23427;-69
2022/08/13 05:18:16;;;;;;;16.50;8.90;;;;;;;18.60;89.84;99500.25;108786;1279;138650;-69
2022/08/13 05:20:55;;;;;;;15.10;9.30;;;;;;;18.57;90.23;99499.52;108982;1279;22468;-69
2022/08/13 05:23:23;;;;;;;14.30;8.70;;;;;;;18.55;90.60;99479.45;108678;1280;22699;-69
2022/08/13 05:26:10;;;;;;;13.00;8.60;;;;;;;18.54;91.10;99482.02;108864;1280;138277;-69
2022/08/13 05:29:04;;;;;;;15.50;9.50;;;;;;;18.54;91.51;99476.89;108914;1280;22546;-69
2022/08/13 05:31:33;;;;;;;13.10;8.50;;;;;;;18.56;91.93;99472.77;108861;1280;138121;-69
2022/08/13 05:34:19;;;;;;;14.30;9.40;;;;;;;18.58;92.38;99478.04;108957;1279;22486;-68
2022/08/13 05:36:46;;;;;;;12.90;9.30;;;;;;;18.61;92.73;99478.17;108829;1280;138576;-69
2022/08/13 05:39:33;;;;;;;16.60;8.90;;;;;;;18.66;92.92;99478.56;108966;1279;23239;-69
2022/08/13 05:42:08;;;;;;;14.20;9.50;;;;;;;18.69;93.10;99478.65;108800;1280;138290;-69
2022/08/13 05:44:35;;;;;;;12.80;8.60;;;;;;;18.73;93.29;99478.31;108876;1279;22563;-70
2022/08/13 05:47:04;;;;;;;16.10;9.50;;;;;;;18.78;93.59;99472.59;108944;1279;22462;-70
2022/08/13 05:49:33;;;;;;;13.60;9.40;;;;;;;18.89;94.20;99475.20;108816;1279;138599;-69
2022/08/13 05:52:20;;;;;;;14.50;9.60;;;;;;;19.00;94.39;99474.02;108926;1280;22442;-68
2022/08/13 05:55:11;;;;;;;15.40;10.40;;;;;;;19.10;93.85;99469.95;108853;1280;138209;-64
2022/08/13 05:57:58;;;;;;;12.70;10.20;;;;;;;19.20;93.46;99468.65;108969;1280;22460;-67
2022/08/13 06:03:24;;;;;;;16.60;10.30;;;;;;;19.37;92.90;99464.87;108965;1280;22571;-68
2022/08/13 06:06:16;;;;;;;12.30;10.00;;;;;;;19.45;92.56;99468.98;108850;1280;139243;-67
2022/08/13 06:08:50;;;;;;;12.80;10.10;;;;;;;19.52;92.44;99468.38;108905;1279;23791;-69
2022/08/13 06:11:17;;;;;;;15.90;11.40;;;;;;;19.59;92.55;99469.85;108968;1279;22435;-67
2022/08/13 06:14:04;;;;;;;;;;;;;;;19.71;92.48;99470.78;108829;1280;139093;-68
2022/08/13 06:16:33;;;;;;;16.10;9.40;;;;;;;19.82;91.76;99476.77;108891;1279;22305;-68
2022/08/13 06:19:21;;;;;;;;;;;;;;;19.93;91.26;99470.10;108721;1280;138701;-68
2022/08/13 06:21:58;;;;;;;13.30;9.70;;;;;;;20.00;90.56;99473.09;109011;1280;23201;-68
2022/08/13 06:24:28;;;;;;;13.30;10.00;;;;;;;20.07;90.00;99477.90;108819;1280;138385;-68
2022/08/13 06:27:04;;;;;;;16.50;10.20;;;;;;;20.11;89.55;99475.90;109020;1279;22458;-69
2022/08/13 06:29:41;;;;;;;17.90;10.30;;;;;;;20.15;89.41;99480.73;108967;1278;22476;-68
2022/08/13 06:32:16;;;;;;;16.80;11.10;;;;;;;20.19;89.58;99473.33;108711;1280;139128;-68
2022/08/13 06:35:06;;;;;;;11.60;9.40;;;;;;;20.22;89.34;99475.75;108899;1279;22575;-66
2022/08/13 06:37:41;;;;;;;13.90;9.50;;;;;;;20.22;89.02;99471.98;108898;1280;138296;-68
2022/08/13 06:40:20;;;;;;;15.70;9.80;;;;;;;20.23;88.66;99470.91;108895;1280;23312;-69
2022/08/13 06:43:05;;;;;;;15.40;10.20;;;;;;;20.24;88.54;99468.92;108886;1279;138080;-68
2022/08/13 06:45:33;;;;;;;21.10;11.40;;;;;;;20.24;88.20;99477.91;109002;1280;22469;-67
2022/08/13 06:48:01;;;;;;;16.00;10.80;;;;;;;20.23;88.14;99476.67;108874;1279;139348;-68
2022/08/13 06:50:34;;;;;;;20.20;11.10;;;;;;;20.23;88.13;99476.30;108954;1280;22481;-68
2022/08/13 06:53:05;;;;;;;28.10;11.40;;;;;;;20.26;88.11;99475.41;108964;1277;22542;-68
2022/08/13 06:55:52;;;;;;;24.10;11.00;;;;;;;20.30;88.42;99469.37;108906;1279;138697;-66
2022/08/13 06:58:39;;;;;;;16.00;11.00;;;;;;;20.39;88.71;99469.23;108905;1279;22520;-65
2022/08/13 07:01:07;;;;;;;17.10;11.10;;;;;;;20.49;88.85;99472.17;108856;1278;139153;-68
2022/08/13 07:03:34;;;;;;;15.30;10.10;;;;;;;20.61;88.55;99464.89;108639;1280;22460;-68
2022/08/13 07:06:26;;;;;;;19.50;11.30;;;;;;;20.71;87.96;99457.69;108887;1278;138547;-68
2022/08/13 07:08:56;;;;;;;15.20;10.30;;;;;;;20.81;87.74;99457.02;108938;1280;22452;-68
2022/08/13 07:11:24;;;;;;;21.90;11.10;;;;;;;20.88;87.32;99452.50;108961;1279;23432;-67
2022/08/13 07:14:06;;;;;;;15.00;10.40;;;;;;;20.99;87.04;99452.19;108902;1278;138946;-65
2022/08/13 07:16:40;;;;;;;21.00;11.40;;;;;;;21.09;86.50;99448.23;108984;1279;22426;-67
2022/08/13 07:19:08;;;;;;;18.30;10.40;;;;;;;21.20;86.21;99443.58;108872;1280;139547;-67
2022/08/13 07:21:36;;;;;;;13.20;10.60;;;;;;;21.31;85.38;99444.74;108976;1279;22522;-67
2022/08/13 07:24:11;;;;;;;15.60;10.80;;;;;;;21.36;84.53;99437.29;108950;1278;138574;-67
2022/08/13 07:27:05;;;;;;;16.30;10.50;;;;;;;21.39;84.13;99449.14;109035;1279;23222;-67
2022/08/13 07:29:37;;;;;;;15.40;11.10;;;;;;;21.43;84.12;99447.27;108991;1277;22522;-67
2022/08/13 07:32:17;;;;;;;15.70;10.70;;;;;;;21.46;83.27;99444.49;108913;1280;139026;-65
2022/08/13 07:34:46;;;;;;;16.80;10.70;;;;;;;21.47;82.69;99447.43;108961;1280;22535;-66
2022/08/13 07:37:20;;;;;;;17.60;10.90;;;;;;;21.47;82.83;99453.30;105225;1280;138909;-65
2022/08/13 07:39:50;;;;;;;14.80;12.10;;;;;;;21.46;82.41;99464.58;104720;1280;24311;-66
2022/08/13 07:42:21;;;;;;;18.30;11.70;;;;;;;21.43;82.25;99473.23;108853;1280;139650;-66
2022/08/13 07:44:58;;;;;;;16.60;10.90;;;;;;;21.38;81.80;99469.75;109015;1280;22470;-66
2022/08/13 07:47:52;;;;;;;21.10;10.00;;;;;;;21.29;81.71;99465.74;108983;1280;22261;-66
2022/08/13 07:50:40;;;;;;;15.00;11.10;;;;;;;21.19;81.58;99464.13;109052;1278;22442;-66
2022/08/13 07:53:10;;;;;;;14.50;11.10;;;;;;;21.11;81.87;99459.94;109028;1280;22514;-67
2022/08/13 07:55:42;;;;;;;20.90;11.90;;;;;;;21.00;82.54;99466.98;108913;1280;139324;-66
2022/08/13 07:58:29;;;;;;;26.60;12.60;;;;;;;20.81;83.60;99479.45;109031;1279;23158;-67
2022/08/13 08:00:57;;;;;;;19.40;11.40;;;;;;;20.64;84.41;99471.11;108931;1278;138645;-67
2022/08/13 08:03:30;;;;;;;20.90;12.10;;;;;;;20.45;85.17;99465.17;108952;1280;23274;-67
2022/08/13 08:06:18;;;;;;;19.60;13.00;;;;;;;20.25;86.05;99469.67;108934;1279;139074;-67
2022/08/13 08:08:55;;;;;;;18.20;11.80;;;;;;;20.12;86.91;99473.95;109014;1277;23480;-67
2022/08/13 08:14:27;;;;;;;17.70;12.30;;;;;;;19.89;88.35;99476.02;108697;1280;138247;-68
2022/08/13 08:16:59;;;;;;;14.60;12.70;;;;;;;19.81;89.02;99473.46;109004;1279;23614;-68
2022/08/13 08:19:47;;;;;;;15.90;12.50;;;;;;;19.74;89.70;99475.77;108855;1278;140012;-68
2022/08/13 08:22:34;;;;;;;23.50;13.30;;;;;;;19.69;90.11;99473.14;109025;1279;23242;-68
2022/08/13 08:25:03;;;;;;;18.60;12.80;;;;;;;19.66;90.67;99465.05;108526;1280;139117;-68
2022/08/13 08:27:41;;;;;;;18.10;12.50;;;;;;;19.64;91.06;99458.86;109044;1279;22445;-66
2022/08/13 08:30:28;;;;;;;16.20;13.00;;;;;;;19.62;91.53;99463.52;108806;1280;139760;-67
2022/08/13 08:32:59;;;;;;;16.00;13.30;;;;;;;19.61;91.94;99465.88;109058;1279;23135;-68
2022/08/13 08:35:28;;;;;;;20.40;13.50;;;;;;;19.62;92.33;99466.06;108945;1279;22282;-68
2022/08/13 08:43:48;;;;;;;18.80;14.60;;;;;;;19.68;93.27;99460.45;108776;1280;138980;-69
2022/08/13 08:46:16;;;;;;;18.40;14.10;;;;;;;19.73;93.51;99467.40;109048;1279;22453;-67
2022/08/13 08:48:43;;;;;;;16.40;13.20;;;;;;;19.77;93.71;99463.02;108669;1280;138446;-68
2022/08/13 08:51:21;;;;;;;15.90;13.20;;;;;;;19.83;93.96;99464.19;109085;1278;22444;-68
2022/08/13 08:53:48;;;;;;;21.20;13.40;;;;;;;19.89;94.22;99461.54;109040;1280;22537;-68
2022/08/13 08:56:35;;;;;;;21.50;14.50;;;;;;;19.95;94.38;99454.80;109006;1280;22662;-67
2022/08/13 08:59:09;;;;;;;19.80;13.00;;;;;;;20.00;94.30;99457.89;109005;1280;22498;-67
2022/08/13 09:01:47;;;;;;;22.80;13.50;;;;;;;20.05;94.41;99460.11;108917;1280;139216;-68
2022/08/13 09:04:28;;;;;;;16.30;13.80;;;;;;;20.11;94.49;99464.41;108853;1279;22488;-69
2022/08/13 09:07:16;;;;;;;16.90;12.80;;;;;;;20.17;94.52;99466.45;108894;1280;138377;-68
2022/08/13 09:09:45;;;;;;;15.00;12.10;;;;;;;20.22;94.44;99459.77;108683;1280;23421;-67
2022/08/13 09:12:14;;;;;;;16.90;13.70;;;;;;;20.25;94.36;99459.49;108910;1279;139684;-68
2022/08/13 09:14:41;;;;;;;20.90;14.60;;;;;;;20.29;94.24;99452.80;109050;1279;22452;-67
2022/08/13 09:17:13;;;;;;;19.40;13.50;;;;;;;20.33;94.13;99445.31;109090;1279;22563;-67
2022/08/13 09:19:41;;;;;;;16.50;13.90;;;;;;;20.38;94.15;99435.51;108943;1279;138591;-67
2022/08/13 09:22:18;;;;;;;19.00;14.10;;;;;;;20.42;93.95;99423.92;108996;1280;23148;-67
2022/08/13 09:24:51;;;;;;;71.50;21.00;;;;;;;20.46;93.86;99420.42;108938;1280;139463;-67
2022/08/13 09:27:18;;;;;;;18.90;14.10;;;;;;;20.51;93.80;99412.83;108915;1280;22573;-67
2022/08/13 09:29:48;;;;;;;19.40;14.40;;;;;;;20.55;93.60;99416.10;109062;1279;23309;-67
2022/08/13 09:32:24;;;;;;;43.20;17.50;;;;;;;20.59;93.56;99413.86;108964;1280;22582;-67
2022/08/13 09:35:03;;;;;;;26.00;14.20;;;;;;;20.63;93.47;99416.04;108959;1279;22507;-67
2022/08/13 09:37:30;;;;;;;20.20;15.00;;;;;;;20.67;93.39;99412.11;108900;1279;138979;-67
2022/08/13 09:40:17;;;;;;;22.10;15.60;;;;;;;20.75;93.36;99402.64;109020;1280;22619;-64
2022/08/13 09:43:10;;;;;;;22.40;15.40;;;;;;;20.81;93.28;99394.99;108874;1280;139665;-66
2022/08/13 09:45:38;;;;;;;23.80;14.10;;;;;;;20.88;93.23;99389.59;108989;1280;22591;-66
2022/08/13 09:48:12;;;;;;;17.60;14.30;;;;;;;20.95;93.18;99390.46;108947;1279;138942;-66
2022/08/13 09:51:02;;;;;;;19.00;15.20;;;;;;;21.04;93.14;99384.95;108996;1278;22470;-66
2022/08/13 09:53:32;;;;;;;19.40;15.40;;;;;;;21.13;93.02;99382.14;108868;1280;22442;-66
2022/08/13 09:56:00;;;;;;;15.60;14.00;;;;;;;21.21;92.83;99381.77;108895;1280;138202;-66
2022/08/13 09:58:30;;;;;;;19.60;14.60;;;;;;;21.29;92.72;99384.66;109049;1277;23267;-66
2022/08/13 10:01:09;;;;;;;18.30;14.40;;;;;;;21.38;92.46;99387.64;108913;1279;138798;-66
2022/08/13 10:03:48;;;;;;;41.80;16.60;;;;;;;21.46;92.16;99381.98;109003;1280;22458;-66
2022/08/13 10:06:28;;;;;;;18.60;14.80;;;;;;;21.55;91.99;99381.30;108902;1279;139583;-65
2022/08/13 10:08:56;;;;;;;21.60;15.10;;;;;;;21.64;91.83;99381.71;109015;1280;22446;-67
2022/08/13 10:11:24;;;;;;;18.80;15.60;;;;;;;21.72;91.31;99379.23;108910;1280;22440;-67
2022/08/13 10:14:10;;;;;;;20.00;15.40;;;;;;;21.81;91.22;99377.52;108955;1279;140498;-66
2022/08/13 10:16:38;;;;;;;18.10;14.30;;;;;;;21.90;90.94;99374.38;109079;1279;22472;-64
2022/08/13 10:19:06;;;;;;;22.30;15.00;;;;;;;21.98;90.42;99370.52;108934;1279;138442;-64
2022/08/13 10:21:33;;;;;;;21.00;15.20;;;;;;;22.07;90.05;99367.47;108983;1279;22498;-64
2022/08/13 10:24:06;;;;;;;19.60;14.20;;;;;;;22.16;89.50;99363.31;108877;1279;138688;-65
2022/08/13 10:26:33;;;;;;;20.30;14.40;;;;;;;22.25;88.77;99360.30;109031;1279;22464;-65
2022/08/13 10:29:00;;;;;;;20.30;15.60;;;;;;;22.33;87.87;99359.56;109043;1279;22610;-64
2022/08/13 10:31:28;;;;;;;18.60;14.00;;;;;;;22.42;87.65;99354.66;108957;1280;139557;-64
2022/08/13 10:34:14;;;;;;;19.60;14.50;;;;;;;22.54;87.48;99356.30;109031;1278;22430;-64
2022/08/13 10:37:03;;;;;;;14.60;13.10;;;;;;;22.65;86.97;99353.14;108891;1279;138531;-64
2022/08/13 10:39:37;;;;;;;15.70;13.80;;;;;;;22.77;86.15;99349.86;109024;1279;22482;-67
2022/08/13 10:42:19;;;;;;;18.10;12.80;;;;;;;22.90;85.01;99352.06;108879;1280;139169;-68
2022/08/13 10:44:47;;;;;;;22.80;13.00;;;;;;;23.03;82.98;99351.39;108895;1279;22460;-67
2022/08/13 10:47:15;;;;;;;14.60;11.60;;;;;;;23.15;81.86;99350.52;108929;1280;22485;-68
2022/08/13 10:50:01;;;;;;;27.30;14.70;;;;;;;23.29;81.50;99350.77;108836;1280;139241;-68
2022/08/13 10:52:28;;;;;;;14.10;11.10;;;;;;;23.43;80.11;99351.84;108954;1280;22538;-68
2022/08/13 10:55:13;;;;;;;15.20;11.40;;;;;;;23.57;79.33;99350.92;108773;1280;138848;-68
2022/08/13 10:57:44;;;;;;;18.10;12.10;;;;;;;23.72;78.41;99353.76;109057;1280;23361;-67
2022/08/13 11:00:30;;;;;;;18.70;11.20;;;;;;;23.85;77.50;99351.48;108890;1277;139534;-67
2022/08/13 11:02:57;;;;;;;18.90;12.20;;;;;;;23.96;76.97;99348.80;109065;1278;22232;-66
2022/08/13 11:05:26;;;;;;;16.90;11.40;;;;;;;24.07;76.07;99350.57;109052;1279;24175;-66
2022/08/13 11:07:53;;;;;;;22.40;11.40;;;;;;;24.17;75.70;99344.51;108915;1280;138763;-66
2022/08/13 11:10:22;;;;;;;22.20;12.10;;;;;;;24.28;75.42;99339.12;109021;1279;23181;-66
2022/08/13 11:12:52;;;;;;;18.90;12.90;;;;;;;24.40;74.62;99335.11;108873;1278;139502;-66
2022/08/13 11:15:33;;;;;;;18.50;12.10;;;;;;;24.53;73.94;99337.06;108979;1280;22433;-66
2022/08/13 11:18:13;;;;;;;16.70;11.50;;;;;;;24.66;73.35;99332.73;108889;1279;140532;-66
2022/08/13 11:23:25;;;;;;;19.10;11.10;;;;;;;24.88;71.39;99330.84;109039;1280;22252;-66
2022/08/13 11:25:52;;;;;;;13.10;11.30;;;;;;;24.96;70.55;99324.23;108959;1280;138449;-66
2022/08/13 11:28:39;;;;;;;18.90;10.70;;;;;;;25.06;68.57;99323.08;109027;1280;23419;-66
2022/08/13 11:31:06;;;;;;;14.40;11.50;;;;;;;25.13;68.06;99323.23;108950;1279;139440;-66
2022/08/13 11:33:32;;;;;;;15.20;11.10;;;;;;;25.18;67.48;99323.69;109015;1280;22515;-66
2022/08/13 11:36:19;;;;;;;12.70;11.10;;;;;;;25.26;65.77;99326.35;108901;1280;138958;-66
2022/08/13 11:38:46;;;;;;;15.30;11.40;;;;;;;25.32;65.50;99319.74;108994;1279;22483;-67
2022/08/13 11:41:18;;;;;;;15.90;10.70;;;;;;;25.39;64.71;99323.17;109016;1280;22553;-66
2022/08/13 11:43:46;;;;;;;17.40;11.90;;;;;;;25.45;64.16;99321.48;108957;1279;138880;-66
2022/08/13 11:46:23;;;;;;;12.80;10.60;;;;;;;25.47;63.37;99317.16;108819;1280;139213;-66
2022/08/13 11:48:50;;;;;;;17.30;11.70;;;;;;;25.46;63.20;99320.70;108991;1279;23419;-66
2022/08/13 11:51:36;;;;;;;12.70;10.30;;;;;;;25.44;63.94;99319.20;108906;1280;138904;-66
2022/08/13 11:54:19;;;;;;;14.70;10.80;;;;;;;25.42;64.33;99320.52;109033;1280;22452;-66
2022/08/13 11:57:03;;;;;;;14.70;10.20;;;;;;;25.42;64.88;99318.68;109011;1280;23275;-66
2022/08/13 11:59:35;;;;;;;14.40;10.20;;;;;;;25.43;65.08;99324.28;108931;1280;139547;-66
2022/08/13 12:02:10;;;;;;;25.60;18.10;;;;;;;25.44;64.95;99322.73;108865;1280;22453;-66
2022/08/13 12:04:44;;;;;;;18.40;11.20;;;;;;;25.44;64.42;99323.11;108896;1280;139683;-66
2022/08/13 12:07:24;;;;;;;15.20;11.50;;;;;;;25.44;63.60;99322.33;108995;1279;23556;-66